Time;durP1;ratioP1;P1;durP2;ratioP2;P2;SDS_P1;SDS_P2;PMS_P1;PMS_P2;Temp;Humidity;BMP_temperature;BMP_pressure;BME280_temperature;BME280_humidity;BME280_pressure;Samples;Min_cycle;Max_cycle;Signal;HPM_P1;HPM_P2
2022/05/14 00:00:30;;;;;;;12.03;4.00;;;10.00;99.90;;;;;;5084727;28;20223;-79
2022/05/14 00:03:00;;;;;;;11.30;4.20;;;10.00;99.90;;;;;;5085919;28;20818;-80
2022/05/14 00:05:27;;;;;;;9.20;3.93;;;10.10;99.90;;;;;;5083536;28;20306;-80
2022/05/14 00:07:54;;;;;;;10.03;3.77;;;10.10;99.90;;;;;;5085554;28;20219;-79
2022/05/14 00:10:23;;;;;;;6.87;3.77;;;10.20;99.90;;;;;;5078329;28;20348;-79
2022/05/14 00:13:04;;;;;;;8.17;3.80;;;10.30;99.90;;;;;;5083185;28;20252;-80
2022/05/14 00:15:32;;;;;;;9.37;4.37;;;10.30;99.90;;;;;;5076379;28;20226;-79
2022/05/14 00:18:01;;;;;;;12.57;4.30;;;10.40;99.90;;;;;;5080702;28;20665;-79
2022/05/14 00:20:28;;;;;;;9.83;4.00;;;10.50;99.90;;;;;;5078542;28;20225;-80
2022/05/14 00:22:55;;;;;;;10.00;3.80;;;10.50;99.90;;;;;;5080814;28;20218;-79
2022/05/14 00:25:22;;;;;;;12.20;4.13;;;10.60;99.90;;;;;;5077894;28;20220;-79
2022/05/14 00:27:49;;;;;;;12.43;4.17;;;10.60;99.90;;;;;;5083321;28;21013;-79
2022/05/14 00:30:18;;;;;;;11.20;4.23;;;10.60;99.90;;;;;;5075638;28;20227;-79
2022/05/14 00:32:47;;;;;;;9.70;3.80;;;10.70;99.90;;;;;;5082961;28;20339;-79
2022/05/14 00:35:15;;;;;;;11.73;4.20;;;10.70;99.90;;;;;;5077964;28;20223;-79
2022/05/14 00:37:42;;;;;;;9.30;3.90;;;10.80;99.90;;;;;;5080403;28;20218;-79
2022/05/14 00:40:13;;;;;;;9.07;4.13;;;10.80;99.90;;;;;;5081738;28;20253;-79
2022/05/14 00:42:41;;;;;;;11.57;4.13;;;10.80;99.90;;;;;;5081880;28;20231;-79
2022/05/14 00:45:09;;;;;;;9.77;4.40;;;10.90;99.90;;;;;;5077723;28;20224;-79
2022/05/14 00:47:40;;;;;;;8.23;3.90;;;10.90;99.90;;;;;;5074479;28;20687;-79
2022/05/14 00:50:08;;;;;;;11.73;4.00;;;11.00;99.90;;;;;;5076874;28;20781;-80
2022/05/14 00:52:37;;;;;;;10.07;4.00;;;11.00;99.90;;;;;;5076817;28;20229;-78
2022/05/14 00:55:06;;;;;;;10.40;4.13;;;11.00;99.90;;;;;;5074236;28;20453;-79
2022/05/14 00:57:37;;;;;;;9.20;4.33;;;11.00;99.90;;;;;;5072559;28;20285;-79
2022/05/14 01:00:09;;;;;;;10.13;3.70;;;11.10;99.90;;;;;;5077273;28;20230;-80
2022/05/14 01:02:36;;;;;;;7.23;4.00;;;11.10;99.90;;;;;;5070856;28;20233;-78
2022/05/14 01:05:03;;;;;;;9.23;4.57;;;11.20;99.90;;;;;;5076730;28;20325;-79
2022/05/14 01:07:31;;;;;;;9.73;4.17;;;11.20;99.90;;;;;;5071358;28;20226;-80
2022/05/14 01:10:03;;;;;;;11.97;4.60;;;11.20;99.80;;;;;;5075378;28;20221;-79
2022/05/14 01:12:33;;;;;;;10.27;4.00;;;11.30;99.80;;;;;;5075119;28;20238;-79
2022/05/14 01:15:13;;;;;;;11.63;4.23;;;11.30;99.70;;;;;;5070726;28;20745;-79
2022/05/14 01:17:40;;;;;;;12.27;4.90;;;11.30;99.60;;;;;;5077126;28;20228;-80
2022/05/14 01:20:09;;;;;;;8.63;4.50;;;11.30;99.50;;;;;;5081349;28;20233;-80
2022/05/14 01:22:49;;;;;;;13.27;4.53;;;11.30;99.40;;;;;;5072201;28;20971;-78
2022/05/14 01:28:17;;;;;;;11.70;4.00;;;11.30;99.40;;;;;;5093360;28;20909;-78
2022/05/14 01:30:49;;;;;;;7.73;4.10;;;11.30;99.30;;;;;;5073154;28;20248;-78
2022/05/14 01:33:16;;;;;;;8.70;3.90;;;11.30;99.30;;;;;;5074660;28;20219;-78
2022/05/14 01:35:45;;;;;;;10.90;3.90;;;11.20;99.30;;;;;;5077292;28;20597;-78
2022/05/14 01:38:16;;;;;;;10.17;4.17;;;11.20;99.30;;;;;;5075176;28;20216;-78
2022/05/14 01:40:43;;;;;;;12.27;3.90;;;11.20;99.40;;;;;;5075162;28;20241;-78
2022/05/14 01:43:10;;;;;;;10.00;4.50;;;11.10;99.40;;;;;;5076966;28;20215;-78
2022/05/14 01:45:39;;;;;;;11.07;3.80;;;11.10;99.40;;;;;;5076183;28;20215;-78
2022/05/14 01:48:07;;;;;;;10.90;4.60;;;11.10;99.50;;;;;;5075499;28;20223;-77
2022/05/14 01:50:34;;;;;;;7.90;3.57;;;11.00;99.60;;;;;;5075057;28;20229;-78
2022/05/14 01:53:01;;;;;;;9.20;4.30;;;11.00;99.60;;;;;;5082033;28;20242;-78
2022/05/14 01:55:28;;;;;;;9.20;3.87;;;11.00;99.70;;;;;;5084010;28;20234;-77
2022/05/14 01:57:55;;;;;;;11.93;4.50;;;11.00;99.70;;;;;;5078257;28;20238;-78
2022/05/14 02:00:27;;;;;;;9.80;4.47;;;11.00;99.80;;;;;;5075443;28;20219;-77
2022/05/14 02:02:56;;;;;;;10.20;4.73;;;11.00;99.80;;;;;;5077141;28;20359;-78
2022/05/14 02:05:24;;;;;;;12.13;4.23;;;11.00;99.90;;;;;;5080642;28;20226;-79
2022/05/14 02:07:54;;;;;;;11.87;4.03;;;11.00;99.80;;;;;;5076512;28;20270;-79
2022/05/14 02:10:20;;;;;;;10.90;4.43;;;11.00;99.80;;;;;;5079731;28;20302;-79
2022/05/14 02:12:47;;;;;;;8.70;3.70;;;11.00;99.80;;;;;;5078568;28;20219;-78
2022/05/14 02:15:14;;;;;;;6.87;4.20;;;11.00;99.80;;;;;;5073790;28;20300;-77
2022/05/14 02:17:41;;;;;;;11.67;4.10;;;11.00;99.90;;;;;;5080797;28;20229;-77
2022/05/14 02:20:10;;;;;;;9.00;4.60;;;11.00;99.90;;;;;;5082074;28;20240;-77
2022/05/14 02:22:38;;;;;;;10.00;4.83;;;11.00;99.90;;;;;;5080894;28;20801;-77
2022/05/14 02:25:09;;;;;;;10.37;4.50;;;11.00;99.90;;;;;;5077182;28;20284;-78
2022/05/14 02:27:36;;;;;;;8.47;4.50;;;11.00;99.90;;;;;;5077832;28;20215;-78
2022/05/14 02:30:04;;;;;;;10.57;4.53;;;10.90;99.90;;;;;;5081017;28;20223;-79
2022/05/14 02:32:30;;;;;;;11.23;4.37;;;10.90;99.90;;;;;;5079643;28;20223;-78
2022/05/14 02:34:59;;;;;;;11.77;5.10;;;10.90;99.90;;;;;;5074893;28;20329;-79
2022/05/14 02:37:27;;;;;;;9.10;4.27;;;11.00;99.90;;;;;;5097350;28;20285;-80
2022/05/14 02:39:54;;;;;;;11.60;4.50;;;10.90;99.90;;;;;;5080624;28;20214;-79
2022/05/14 02:42:21;;;;;;;21.07;5.37;;;11.00;99.90;;;;;;5076853;28;20347;-79
2022/05/14 02:44:48;;;;;;;13.13;5.33;;;10.90;99.90;;;;;;5077354;28;20224;-79
2022/05/14 02:47:15;;;;;;;9.87;4.43;;;10.90;99.90;;;;;;5083380;28;20220;-79
2022/05/14 02:49:42;;;;;;;10.50;4.70;;;10.90;99.90;;;;;;5079293;28;20242;-78
2022/05/14 02:52:10;;;;;;;13.93;5.20;;;10.90;99.90;;;;;;5077938;28;20633;-79
2022/05/14 02:54:39;;;;;;;10.97;4.30;;;10.80;99.90;;;;;;5083677;28;20384;-79
2022/05/14 02:57:07;;;;;;;11.07;5.00;;;10.80;99.90;;;;;;5084436;28;20272;-79
2022/05/14 02:59:34;;;;;;;11.50;5.37;;;10.80;99.90;;;;;;5076254;28;20230;-78
2022/05/14 03:02:03;;;;;;;13.30;5.23;;;10.80;99.90;;;;;;5077125;28;20229;-80
2022/05/14 03:04:32;;;;;;;11.53;5.87;;;10.80;99.90;;;;;;5076890;28;21221;-80
2022/05/14 03:07:00;;;;;;;13.47;4.70;;;10.80;99.90;;;;;;5083057;28;20228;-82
2022/05/14 03:09:27;;;;;;;10.83;5.30;;;10.80;99.90;;;;;;5075981;28;20231;-78
2022/05/14 03:11:55;;;;;;;12.63;4.67;;;10.80;99.90;;;;;;5078457;28;20234;-80
2022/05/14 03:14:23;;;;;;;11.43;5.00;;;10.80;99.90;;;;;;5075058;28;20267;-79
2022/05/14 03:16:49;;;;;;;11.00;4.57;;;10.80;99.90;;;;;;5082291;28;20288;-79
2022/05/14 03:19:17;;;;;;;13.00;5.20;;;10.70;99.90;;;;;;5079034;28;20220;-80
2022/05/14 03:21:44;;;;;;;14.13;5.30;;;10.70;99.90;;;;;;5076753;28;20230;-79
2022/05/14 03:24:11;;;;;;;10.23;5.30;;;10.70;99.90;;;;;;5083182;28;20778;-80
2022/05/14 03:26:38;;;;;;;9.83;4.60;;;10.70;99.90;;;;;;5079923;28;20655;-79
2022/05/14 03:29:08;;;;;;;15.67;5.00;;;10.60;99.90;;;;;;5087233;28;20256;-80
2022/05/14 03:31:36;;;;;;;11.77;4.70;;;10.70;99.90;;;;;;5087911;28;20237;-82
2022/05/14 03:34:04;;;;;;;10.03;5.03;;;10.60;99.90;;;;;;5086596;28;20286;-82
2022/05/14 03:36:31;;;;;;;11.70;4.63;;;10.60;99.90;;;;;;5087347;28;20234;-81
2022/05/14 03:38:57;;;;;;;9.37;4.90;;;10.60;99.90;;;;;;5090796;28;20250;-82
2022/05/14 03:41:24;;;;;;;9.87;4.90;;;10.60;99.90;;;;;;5086551;28;20232;-80
2022/05/14 03:43:51;;;;;;;11.07;5.23;;;10.60;99.90;;;;;;5075419;28;20312;-78
2022/05/14 03:46:19;;;;;;;14.07;5.07;;;10.60;99.90;;;;;;5076862;28;20214;-79
2022/05/14 03:48:46;;;;;;;13.83;5.70;;;10.60;99.90;;;;;;5082068;28;20815;-79
2022/05/14 03:51:13;;;;;;;12.73;5.83;;;10.60;99.90;;;;;;5075103;28;20741;-79
2022/05/14 03:53:40;;;;;;;10.60;5.33;;;10.60;99.90;;;;;;5079695;28;20342;-80
2022/05/14 03:56:07;;;;;;;13.60;5.40;;;10.60;99.90;;;;;;5081311;28;20228;-79
2022/05/14 03:58:35;;;;;;;17.27;5.57;;;10.50;99.90;;;;;;5075063;28;20242;-78
2022/05/14 04:01:03;;;;;;;11.43;5.00;;;10.50;99.90;;;;;;5079492;28;20300;-80
2022/05/14 04:03:32;;;;;;;14.77;5.40;;;10.50;99.90;;;;;;5079819;28;20221;-79
2022/05/14 04:05:59;;;;;;;13.70;5.70;;;10.50;99.90;;;;;;5082383;28;20250;-80
2022/05/14 04:08:27;;;;;;;12.77;5.93;;;10.60;99.90;;;;;;5097902;28;20226;-79
2022/05/14 04:10:54;;;;;;;10.87;5.63;;;10.60;99.90;;;;;;5082007;28;20304;-78
2022/05/14 04:13:21;;;;;;;15.70;6.13;;;10.60;99.90;;;;;;5079883;28;20249;-79
2022/05/14 04:15:47;;;;;;;12.43;4.73;;;10.60;99.90;;;;;;5084414;28;20218;-80
2022/05/14 04:18:15;;;;;;;12.87;5.53;;;10.70;99.90;;;;;;5085123;28;20751;-82
2022/05/14 04:20:43;;;;;;;14.07;5.33;;;10.80;99.90;;;;;;5089807;28;20224;-79
2022/05/14 04:23:09;;;;;;;13.60;4.90;;;10.80;99.90;;;;;;5079318;28;20316;-80
2022/05/14 04:25:37;;;;;;;12.83;5.10;;;10.90;99.90;;;;;;5091533;28;20217;-78
2022/05/14 04:28:05;;;;;;;12.53;6.30;;;10.90;99.90;;;;;;5080352;28;20242;-80
2022/05/14 04:30:31;;;;;;;15.13;5.53;;;10.90;99.90;;;;;;5078734;28;20227;-78
2022/05/14 04:32:58;;;;;;;13.40;6.17;;;11.00;99.90;;;;;;5086004;28;20240;-79
2022/05/14 04:35:25;;;;;;;12.73;5.47;;;11.00;99.90;;;;;;5078824;28;20575;-78
2022/05/14 04:37:53;;;;;;;12.03;5.27;;;11.00;99.90;;;;;;5077806;28;20215;-78
2022/05/14 04:40:20;;;;;;;12.23;5.43;;;11.10;99.90;;;;;;5074918;28;21914;-79
2022/05/14 04:42:46;;;;;;;13.43;4.80;;;11.10;99.90;;;;;;5078413;28;20227;-78
2022/05/14 04:45:13;;;;;;;10.63;5.10;;;11.10;99.90;;;;;;5076139;28;20221;-78
2022/05/14 04:47:41;;;;;;;12.27;4.97;;;11.10;99.90;;;;;;5082354;28;20221;-80
2022/05/14 04:50:11;;;;;;;15.93;6.17;;;11.20;99.90;;;;;;5081910;28;20317;-81
2022/05/14 04:52:38;;;;;;;11.50;5.30;;;11.20;99.90;;;;;;5078650;28;20225;-79
2022/05/14 04:55:08;;;;;;;13.23;5.53;;;11.30;99.90;;;;;;5078342;28;20239;-79
2022/05/14 04:57:35;;;;;;;15.03;5.43;;;11.30;99.90;;;;;;5077643;28;20222;-80
2022/05/14 05:00:03;;;;;;;12.13;5.63;;;11.40;99.90;;;;;;5079807;28;20277;-78
2022/05/14 05:05:18;;;;;;;12.43;4.43;;;11.50;99.90;;;;;;5073523;28;20349;-80
2022/05/14 05:07:46;;;;;;;13.93;4.83;;;11.50;99.90;;;;;;5077561;28;20229;-78
2022/05/14 05:10:14;;;;;;;13.23;5.33;;;11.50;99.90;;;;;;5080373;28;20223;-78
2022/05/14 05:12:41;;;;;;;14.83;5.33;;;11.60;99.90;;;;;;5080317;28;20239;-79
2022/05/14 05:15:08;;;;;;;11.50;5.13;;;11.60;99.90;;;;;;5077864;28;20225;-78
2022/05/14 05:17:35;;;;;;;14.40;5.00;;;11.70;99.90;;;;;;5082452;28;20234;-78
2022/05/14 05:20:01;;;;;;;11.27;4.83;;;11.70;99.90;;;;;;5080927;28;20214;-79
2022/05/14 05:22:28;;;;;;;16.70;5.23;;;11.70;99.90;;;;;;5078850;28;20234;-78
2022/05/14 05:24:56;;;;;;;17.27;5.50;;;11.70;99.90;;;;;;5078550;28;20620;-78
2022/05/14 05:27:24;;;;;;;19.43;6.07;;;11.80;99.90;;;;;;5082777;28;20222;-79
2022/05/14 05:29:51;;;;;;;15.43;5.03;;;11.80;99.90;;;;;;5105547;28;20305;-80
2022/05/14 05:32:18;;;;;;;15.07;5.73;;;11.90;99.90;;;;;;5083036;28;20222;-80
2022/05/14 05:34:45;;;;;;;10.90;4.80;;;11.90;99.90;;;;;;5078456;28;20331;-80
2022/05/14 05:37:11;;;;;;;14.57;5.27;;;12.00;99.90;;;;;;5083611;28;20221;-81
2022/05/14 05:39:38;;;;;;;16.67;6.37;;;12.00;99.90;;;;;;5084252;28;20294;-80
2022/05/14 05:42:06;;;;;;;13.03;5.40;;;12.00;99.90;;;;;;5079339;28;20224;-81
2022/05/14 05:44:34;;;;;;;15.70;5.33;;;12.00;99.90;;;;;;5082035;28;20223;-80
2022/05/14 05:47:06;;;;;;;15.70;5.40;;;12.00;99.90;;;;;;5079141;28;20252;-80
2022/05/14 05:49:33;;;;;;;14.63;5.67;;;12.10;99.90;;;;;;5081300;28;20218;-80
2022/05/14 05:51:59;;;;;;;17.17;5.80;;;12.10;99.90;;;;;;5082006;28;20230;-80
2022/05/14 05:57:11;;;;;;;12.93;5.30;;;12.20;99.90;;;;;;5082569;28;20692;-80
2022/05/14 05:59:39;;;;;;;12.73;5.90;;;12.30;99.90;;;;;;5085486;28;20234;-80
2022/05/14 06:02:06;;;;;;;16.67;5.83;;;12.30;99.90;;;;;;5087199;28;20236;-79
2022/05/14 06:04:33;;;;;;;15.60;5.27;;;12.40;99.90;;;;;;5077660;28;20227;-81
2022/05/14 06:07:00;;;;;;;18.17;5.60;;;12.50;99.90;;;;;;5085450;28;20218;-81
2022/05/14 06:09:29;;;;;;;12.63;5.37;;;12.60;99.90;;;;;;5084827;28;23033;-79
2022/05/14 06:11:58;;;;;;;13.50;5.03;;;12.60;99.90;;;;;;5083459;28;20250;-80
2022/05/14 06:14:25;;;;;;;14.50;6.17;;;12.70;99.90;;;;;;5082673;28;20276;-80
2022/05/14 06:16:53;;;;;;;13.37;5.50;;;12.80;99.90;;;;;;5084784;28;20314;-80
2022/05/14 06:19:20;;;;;;;14.83;4.77;;;12.90;99.90;;;;;;5084170;28;20322;-80
2022/05/14 06:21:46;;;;;;;13.73;5.67;;;13.00;99.90;;;;;;5086485;28;20744;-81
2022/05/14 06:24:13;;;;;;;17.93;6.10;;;13.10;99.90;;;;;;5080377;28;20215;-78
2022/05/14 06:26:41;;;;;;;19.03;5.90;;;13.20;99.90;;;;;;5079443;28;20239;-79
2022/05/14 06:29:08;;;;;;;20.33;5.77;;;13.30;99.90;;;;;;5077520;28;20234;-78
2022/05/14 06:31:36;;;;;;;17.83;5.27;;;13.40;99.90;;;;;;5080920;28;20763;-78
2022/05/14 06:34:04;;;;;;;16.97;5.70;;;13.50;99.90;;;;;;5082721;28;20220;-78
2022/05/14 06:36:32;;;;;;;15.13;5.10;;;13.60;99.90;;;;;;5076923;28;20232;-77
2022/05/14 06:38:59;;;;;;;13.60;5.10;;;13.80;99.90;;;;;;5078387;28;20714;-77
2022/05/14 06:41:26;;;;;;;15.60;5.37;;;13.90;99.80;;;;;;5077726;28;20227;-78
2022/05/14 06:43:52;;;;;;;19.93;5.43;;;14.10;99.70;;;;;;5077356;28;20246;-78
2022/05/14 06:46:19;;;;;;;16.03;5.30;;;14.20;99.40;;;;;;5082225;28;20231;-78
2022/05/14 06:48:46;;;;;;;14.40;4.73;;;14.40;99.30;;;;;;5084567;28;20637;-78
2022/05/14 06:51:20;;;;;;;17.53;5.93;;;14.50;99.30;;;;;;5082573;28;20300;-78
2022/05/14 06:53:49;;;;;;;18.17;5.77;;;14.70;99.00;;;;;;5079443;28;20267;-78
2022/05/14 06:56:17;;;;;;;14.83;4.77;;;14.90;98.90;;;;;;5082006;28;20230;-79
2022/05/14 06:58:48;;;;;;;21.07;5.57;;;15.20;98.60;;;;;;5085009;28;20226;-80
2022/05/14 07:01:17;;;;;;;13.63;4.87;;;15.50;98.40;;;;;;5083804;28;20241;-79
2022/05/14 07:06:39;;;;;;;17.30;4.53;;;16.20;97.60;;;;;;5086140;28;20694;-81
2022/05/14 07:09:06;;;;;;;16.37;4.60;;;16.70;97.50;;;;;;5081942;28;20644;-80
2022/05/14 07:11:35;;;;;;;11.20;4.50;;;17.20;96.70;;;;;;5080869;28;20233;-80
2022/05/14 07:14:03;;;;;;;14.17;5.33;;;17.60;95.80;;;;;;5086885;28;20238;-81
2022/05/14 07:16:29;;;;;;;14.67;4.33;;;18.00;95.20;;;;;;5090134;28;20533;-80
2022/05/14 07:18:56;;;;;;;10.20;4.10;;;18.40;94.80;;;;;;5091895;28;20215;-80
2022/05/14 07:21:23;;;;;;;16.85;4.60;;;18.80;94.30;;;;;;5083386;28;20222;-83
2022/05/14 07:23:51;;;;;;;11.07;4.95;;;19.20;93.40;;;;;;5086723;28;20272;-85
2022/05/14 07:26:18;;;;;;;14.27;4.97;;;19.60;92.30;;;;;;5091273;28;20227;-82
2022/05/14 07:28:44;;;;;;;10.63;4.40;;;20.00;91.80;;;;;;5083548;28;20219;-83
2022/05/14 07:31:11;;;;;;;15.90;4.55;;;20.30;91.50;;;;;;5087319;28;20309;-85
2022/05/14 07:33:38;;;;;;;16.30;4.53;;;20.60;91.00;;;;;;5083174;28;20223;-84
2022/05/14 07:36:11;;;;;;;10.77;4.20;;;20.90;89.70;;;;;;5091881;28;20291;-81
2022/05/14 07:38:39;;;;;;;12.02;4.32;;;21.20;88.60;;;;;;5091839;28;20242;-80
2022/05/14 07:41:08;;;;;;;13.88;4.35;;;21.50;87.60;;;;;;5093337;28;20250;-82
2022/05/14 07:43:38;;;;;;;11.63;3.90;;;21.80;86.10;;;;;;5089095;28;20222;-82
2022/05/14 07:46:10;;;;;;;11.77;4.10;;;22.00;86.90;;;;;;5081953;28;20335;-83
2022/05/14 07:48:40;;;;;;;18.65;4.85;;;22.30;85.10;;;;;;5086541;28;21035;-83
2022/05/14 07:51:08;;;;;;;12.25;3.80;;;22.60;83.40;;;;;;5088759;28;20300;-81
2022/05/14 07:53:36;;;;;;;12.45;4.30;;;22.80;83.20;;;;;;5090020;28;20881;-82
2022/05/14 07:56:05;;;;;;;10.85;3.67;;;23.10;81.50;;;;;;5088678;28;20303;-82
2022/05/14 07:58:33;;;;;;;11.18;3.53;;;23.20;80.70;;;;;;5089967;28;20251;-84
2022/05/14 08:01:00;;;;;;;11.77;4.10;;;23.40;79.30;;;;;;5092260;28;20223;-84
2022/05/14 08:03:28;;;;;;;9.40;3.50;;;23.60;79.10;;;;;;5085064;28;20222;-81
2022/05/14 08:05:55;;;;;;;9.85;3.65;;;23.70;77.80;;;;;;5093037;28;20218;-81
2022/05/14 08:08:22;;;;;;;12.88;3.80;;;23.70;77.10;;;;;;5087767;28;20226;-82
2022/05/14 08:10:49;;;;;;;11.52;3.70;;;23.70;76.80;;;;;;5088617;28;20235;-81
2022/05/14 08:13:17;;;;;;;10.77;3.88;;;23.80;76.70;;;;;;5086681;28;20940;-82
2022/05/14 08:15:47;;;;;;;10.10;3.67;;;24.00;74.40;;;;;;5085734;28;21225;-83
2022/05/14 08:18:14;;;;;;;12.25;4.25;;;24.00;73.70;;;;;;5084109;28;20219;-83
2022/05/14 08:20:41;;;;;;;10.80;3.97;;;24.10;74.50;;;;;;5085244;28;20231;-83
2022/05/14 08:25:54;;;;;;;7.03;3.35;;;24.00;73.00;;;;;;5084407;28;20362;-83
2022/05/14 08:28:21;;;;;;;11.80;3.53;;;23.90;73.40;;;;;;5079529;28;20626;-82
2022/05/14 08:30:50;;;;;;;8.35;2.95;;;23.70;72.60;;;;;;5086484;28;20237;-82
2022/05/14 08:33:17;;;;;;;9.20;3.40;;;23.50;70.70;;;;;;5086107;28;20345;-81
2022/05/14 08:35:44;;;;;;;7.75;3.42;;;23.20;71.20;;;;;;5086820;28;20242;-81
2022/05/14 08:38:13;;;;;;;10.00;3.28;;;23.00;72.20;;;;;;5084900;28;20218;-81
2022/05/14 08:40:42;;;;;;;13.80;5.55;;;22.80;71.90;;;;;;5084443;28;20219;-81
2022/05/14 08:43:16;;;;;;;9.73;3.65;;;22.50;71.80;;;;;;5089602;28;20245;-83
2022/05/14 08:45:43;;;;;;;8.80;3.28;;;22.30;71.50;;;;;;5087034;28;20675;-81
2022/05/14 08:48:16;;;;;;;12.05;3.50;;;22.20;72.20;;;;;;5084307;28;20212;-81
2022/05/14 08:50:48;;;;;;;8.82;3.35;;;22.10;72.00;;;;;;5081202;28;20277;-82
2022/05/14 08:53:15;;;;;;;9.23;3.45;;;22.10;73.40;;;;;;5091094;28;20306;-81
2022/05/14 08:55:47;;;;;;;9.85;4.05;;;22.10;73.30;;;;;;5086627;28;20238;-78
2022/05/14 08:58:20;;;;;;;8.20;3.10;;;22.10;73.10;;;;;;5084138;28;20694;-79
2022/05/14 09:00:46;;;;;;;11.82;3.60;;;22.00;73.40;;;;;;5084435;28;20230;-81
2022/05/14 09:03:14;;;;;;;7.50;3.38;;;22.10;73.50;;;;;;5084112;28;20222;-79
2022/05/14 09:05:43;;;;;;;9.70;3.63;;;22.00;73.30;;;;;;5083193;28;20232;-79
2022/05/14 09:08:10;;;;;;;9.18;3.75;;;22.00;72.30;;;;;;5083283;28;20287;-83
2022/05/14 09:10:39;;;;;;;9.75;3.45;;;22.00;72.70;;;;;;5077470;28;20266;-83
2022/05/14 09:13:13;;;;;;;8.07;2.83;;;22.10;72.30;;;;;;5080635;28;20773;-82
2022/05/14 09:15:46;;;;;;;8.52;2.97;;;22.10;72.50;;;;;;5085315;28;20650;-82
2022/05/14 09:18:20;;;;;;;8.35;2.97;;;22.30;73.10;;;;;;5084893;28;20215;-82
2022/05/14 09:20:50;;;;;;;11.93;3.38;;;22.50;72.20;;;;;;5070307;28;20230;-82
2022/05/14 09:23:29;;;;;;;11.18;3.38;;;22.70;71.10;;;;;;5080044;28;20238;-82
2022/05/14 09:25:58;;;;;;;9.93;3.00;;;23.00;69.90;;;;;;5084722;28;20216;-83
2022/05/14 09:28:31;;;;;;;8.45;3.30;;;23.00;69.80;;;;;;5084675;28;20233;-83
2022/05/14 09:31:00;;;;;;;8.25;3.05;;;23.00;68.80;;;;;;5078047;28;20214;-82
2022/05/14 09:33:35;;;;;;;9.20;3.17;;;22.80;68.60;;;;;;5087192;28;20278;-82
2022/05/14 09:36:04;;;;;;;5.13;2.63;;;22.60;68.70;;;;;;5083408;28;20232;-83
2022/05/14 09:38:31;;;;;;;6.72;2.50;;;22.30;68.00;;;;;;5087558;28;20721;-83
2022/05/14 09:41:10;;;;;;;7.60;2.97;;;22.10;68.40;;;;;;5078062;28;20245;-82
2022/05/14 09:43:38;;;;;;;8.52;2.72;;;22.00;67.70;;;;;;5084529;28;20574;-82
2022/05/14 09:46:07;;;;;;;9.25;2.88;;;22.00;68.20;;;;;;5078098;28;20650;-82
2022/05/14 09:48:46;;;;;;;8.45;3.10;;;21.80;68.50;;;;;;5083969;28;20763;-82
2022/05/14 09:51:13;;;;;;;8.57;2.53;;;21.70;68.60;;;;;;5085522;28;20581;-82
2022/05/14 09:53:42;;;;;;;11.82;2.70;;;21.50;68.90;;;;;;5085100;28;20316;-83
2022/05/14 09:56:31;;;;;;;7.75;2.47;;;21.40;68.90;;;;;;5087163;28;20245;-82
2022/05/14 09:59:10;;;;;;;9.65;3.10;;;21.20;69.10;;;;;;5075161;28;20229;-82
2022/05/14 10:01:44;;;;;;;8.27;3.20;;;21.10;69.00;;;;;;5084284;28;20242;-83
2022/05/14 10:04:33;;;;;;;7.18;3.05;;;20.80;68.90;;;;;;5084451;28;20257;-82
2022/05/14 10:07:05;;;;;;;10.35;3.28;;;20.50;69.60;;;;;;5077717;28;20227;-82
2022/05/14 10:09:39;;;;;;;8.90;3.22;;;20.20;70.30;;;;;;5081448;28;20253;-82
2022/05/14 10:12:21;;;;;;;11.02;3.58;;;20.00;71.30;;;;;;5090453;28;20218;-82
2022/05/14 10:15:00;;;;;;;9.50;2.93;;;19.90;72.00;;;;;;5088075;28;20617;-82
2022/05/14 10:17:43;;;;;;;10.63;3.03;;;19.70;71.60;;;;;;5090556;28;20260;-82
2022/05/14 10:20:34;;;;;;;9.10;3.00;;;19.60;72.00;;;;;;5089118;28;20225;-81
2022/05/14 10:26:48;;;;;;;8.90;2.88;;;19.30;73.20;;;;;;5089650;28;20275;-83
2022/05/14 10:29:36;;;;;;;11.00;2.90;;;19.20;73.50;;;;;;5083893;28;20233;-82
2022/05/14 10:32:06;;;;;;;11.52;2.90;;;19.20;74.20;;;;;;5087416;28;20335;-81
2022/05/14 10:34:41;;;;;;;6.65;2.55;;;19.10;73.80;;;;;;5089569;28;20226;-82
2022/05/14 10:37:17;;;;;;;8.93;3.10;;;19.00;73.30;;;;;;5077323;28;20260;-82
2022/05/14 10:39:51;;;;;;;9.73;3.28;;;19.00;73.00;;;;;;5089126;28;20222;-83
2022/05/14 10:42:26;;;;;;;8.07;3.00;;;19.00;73.80;;;;;;5077357;28;20226;-82
2022/05/14 10:45:01;;;;;;;9.95;3.22;;;19.00;74.40;;;;;;5087667;28;20607;-82
2022/05/14 10:47:29;;;;;;;9.48;2.85;;;19.20;73.50;;;;;;5085813;28;20306;-82
2022/05/14 10:50:00;;;;;;;19.53;3.50;;;19.40;73.40;;;;;;5090050;28;20241;-82
2022/05/14 10:52:29;;;;;;;8.75;2.97;;;19.40;73.30;;;;;;5089342;28;20618;-82
2022/05/14 10:54:57;;;;;;;8.13;2.70;;;19.40;73.40;;;;;;5087652;28;20329;-82
2022/05/14 10:57:32;;;;;;;10.10;3.17;;;19.40;73.80;;;;;;5087472;28;20245;-82
2022/05/14 11:00:16;;;;;;;12.03;3.90;;;19.40;74.30;;;;;;5085093;28;20783;-82
2022/05/14 11:02:53;;;;;;;13.83;3.60;;;19.20;74.60;;;;;;5083098;28;20266;-82
2022/05/14 11:05:30;;;;;;;11.87;3.43;;;19.20;75.00;;;;;;5087799;28;20323;-83
2022/05/14 11:08:10;;;;;;;9.60;3.97;;;19.20;75.30;;;;;;5082436;28;20226;-82
2022/05/14 11:10:37;;;;;;;10.83;3.33;;;19.10;75.30;;;;;;5090302;28;20380;-82
2022/05/14 11:13:13;;;;;;;9.80;2.97;;;19.10;75.00;;;;;;5089672;28;20236;-82
2022/05/14 11:15:40;;;;;;;8.57;3.00;;;19.10;74.60;;;;;;5089498;28;20302;-83
2022/05/14 11:18:09;;;;;;;8.90;3.07;;;19.10;74.60;;;;;;5088599;28;20225;-83
2022/05/14 11:20:37;;;;;;;8.30;2.57;;;19.10;74.40;;;;;;5086967;28;20230;-81
2022/05/14 11:23:07;;;;;;;13.82;3.75;;;19.10;74.70;;;;;;5087568;28;20253;-82
2022/05/14 11:25:35;;;;;;;8.00;3.15;;;19.20;74.90;;;;;;5087455;28;20222;-82
2022/05/14 11:28:07;;;;;;;7.28;2.95;;;19.20;74.10;;;;;;5090095;28;20339;-82
2022/05/14 11:30:37;;;;;;;9.43;3.03;;;19.40;74.00;;;;;;5080639;28;20233;-82
2022/05/14 11:33:17;;;;;;;8.82;3.03;;;19.50;73.50;;;;;;5089562;28;20263;-82
2022/05/14 11:35:46;;;;;;;11.73;3.23;;;19.50;73.40;;;;;;5079735;28;20238;-83
2022/05/14 11:38:17;;;;;;;10.38;2.88;;;19.50;73.50;;;;;;5087768;28;20791;-82
2022/05/14 11:40:55;;;;;;;12.93;2.92;;;19.50;73.10;;;;;;5084540;28;20313;-82
2022/05/14 11:43:27;;;;;;;10.48;3.55;;;19.50;73.30;;;;;;5086223;28;20268;-83
2022/05/14 11:46:05;;;;;;;8.52;2.65;;;19.60;73.70;;;;;;5088378;28;20223;-83
2022/05/14 11:48:38;;;;;;;10.48;3.10;;;19.80;73.70;;;;;;5080607;28;20233;-81
2022/05/14 11:51:10;;;;;;;11.25;3.33;;;20.10;72.90;;;;;;5082044;28;21012;-83
2022/05/14 11:53:43;;;;;;;7.82;3.17;;;20.40;73.30;;;;;;5081900;28;20220;-83
2022/05/14 11:56:19;;;;;;;8.18;2.83;;;20.60;71.50;;;;;;5088856;28;20721;-82
2022/05/14 11:58:52;;;;;;;8.93;2.50;;;20.70;70.90;;;;;;5089083;28;20308;-83
2022/05/14 12:01:22;;;;;;;9.45;2.90;;;20.80;70.20;;;;;;5088297;28;20226;-83
2022/05/14 12:03:49;;;;;;;7.45;2.63;;;20.80;68.70;;;;;;5086436;28;20456;-82
2022/05/14 12:06:39;;;;;;;10.32;3.10;;;20.90;69.20;;;;;;5081612;28;20220;-83
2022/05/14 12:09:21;;;;;;;8.02;2.45;;;20.80;69.00;;;;;;5082143;28;20214;-83
2022/05/14 12:11:59;;;;;;;9.63;2.70;;;20.80;68.60;;;;;;5084289;28;20298;-82
2022/05/14 12:14:30;;;;;;;7.25;2.72;;;20.70;68.70;;;;;;5088108;28;20229;-83
2022/05/14 12:16:58;;;;;;;8.98;2.80;;;20.70;69.60;;;;;;5089181;28;20334;-82
2022/05/14 12:19:28;;;;;;;9.35;3.20;;;20.80;69.90;;;;;;5086308;28;20223;-83
2022/05/14 12:21:57;;;;;;;10.60;3.05;;;21.00;70.30;;;;;;5087815;28;20299;-82
2022/05/14 12:24:25;;;;;;;7.20;3.03;;;21.20;69.00;;;;;;5087524;28;20935;-83
2022/05/14 12:26:54;;;;;;;9.00;2.83;;;21.30;68.70;;;;;;5088444;28;20462;-82
2022/05/14 12:29:24;;;;;;;9.32;3.15;;;21.30;68.20;;;;;;5088220;28;20227;-82
2022/05/14 12:34:43;;;;;;;7.50;2.88;;;21.10;68.40;;;;;;5085700;28;20229;-83
2022/05/14 12:37:22;;;;;;;8.63;2.53;;;21.10;67.90;;;;;;5081734;28;20230;-82
2022/05/14 12:39:51;;;;;;;7.10;2.97;;;21.00;67.70;;;;;;5083365;28;20290;-83
2022/05/14 12:42:23;;;;;;;8.25;2.63;;;21.10;68.10;;;;;;5087928;28;20277;-82
2022/05/14 12:44:54;;;;;;;6.82;2.58;;;21.20;68.40;;;;;;5085892;28;20386;-82
2022/05/14 12:47:26;;;;;;;7.47;2.70;;;21.30;67.80;;;;;;5087900;28;20621;-82
2022/05/14 12:49:54;;;;;;;8.23;2.72;;;21.30;68.00;;;;;;5080327;28;20218;-83
2022/05/14 12:52:23;;;;;;;9.32;2.92;;;21.40;68.30;;;;;;5085962;28;20241;-82
2022/05/14 12:54:52;;;;;;;6.82;2.50;;;21.50;67.60;;;;;;5085023;28;20291;-82
2022/05/14 12:57:22;;;;;;;9.05;2.40;;;21.60;66.40;;;;;;5087486;28;20233;-83
2022/05/14 12:59:49;;;;;;;7.50;2.45;;;21.80;66.10;;;;;;5088335;28;20230;-82
2022/05/14 13:02:20;;;;;;;6.93;2.47;;;21.90;66.00;;;;;;5088228;28;20214;-82
2022/05/14 13:04:52;;;;;;;5.53;2.20;;;22.00;63.80;;;;;;5086119;28;20272;-83
2022/05/14 13:07:20;;;;;;;7.30;2.50;;;22.10;63.80;;;;;;5085280;28;20231;-81
2022/05/14 13:09:48;;;;;;;6.93;2.30;;;22.20;64.00;;;;;;5087367;28;20222;-81
2022/05/14 13:12:20;;;;;;;5.97;2.00;;;22.20;63.50;;;;;;5085768;28;20253;-82